Time;durP1;ratioP1;P1;durP2;ratioP2;P2;SDS_P1;SDS_P2;PMS_P1;PMS_P2;Temp;Humidity;BMP_temperature;BMP_pressure;BME280_temperature;BME280_humidity;BME280_pressure;Samples;Min_cycle;Max_cycle;Signal;HPM_P1;HPM_P2
2021/03/20 00:00:19;;;;;;;5.13;4.63;;;22.60;31.80;;;;;;5067587;28;20032;-59
2021/03/20 00:02:45;;;;;;;5.88;4.95;;;22.60;31.90;;;;;;5094686;28;20032;-59
2021/03/20 00:05:12;;;;;;;6.25;4.10;;;22.60;31.90;;;;;;5084763;28;20054;-59
2021/03/20 00:07:39;;;;;;;5.45;4.55;;;22.60;31.90;;;;;;5057725;28;20490;-59
2021/03/20 00:10:09;;;;;;;4.40;4.00;;;22.60;31.90;;;;;;5076738;28;20073;-59
2021/03/20 00:12:35;;;;;;;5.57;3.70;;;22.60;32.00;;;;;;5057776;28;20032;-59
2021/03/20 00:15:02;;;;;;;5.40;4.13;;;22.50;32.00;;;;;;5088180;28;20465;-59
2021/03/20 00:17:28;;;;;;;4.75;3.85;;;22.60;32.00;;;;;;5095621;28;20036;-59
2021/03/20 00:19:54;;;;;;;4.40;4.00;;;22.60;32.70;;;;;;5077298;28;20032;-58
2021/03/20 00:22:20;;;;;;;3.92;3.40;;;22.50;32.00;;;;;;5077266;28;20404;-59
2021/03/20 00:24:46;;;;;;;3.20;2.90;;;22.50;32.00;;;;;;5077203;28;20031;-59
2021/03/20 00:27:12;;;;;;;6.88;3.78;;;22.50;32.00;;;;;;5075653;28;20028;-59
2021/03/20 00:29:38;;;;;;;3.75;3.25;;;22.50;32.10;;;;;;5057713;28;20027;-60
2021/03/20 00:32:04;;;;;;;4.22;3.42;;;22.50;32.10;;;;;;5057419;28;20035;-60
2021/03/20 00:34:30;;;;;;;4.30;3.05;;;22.50;32.10;;;;;;5081123;28;20028;-59
2021/03/20 00:36:56;;;;;;;4.00;3.13;;;22.50;32.20;;;;;;5075783;28;20051;-58
2021/03/20 00:39:23;;;;;;;4.63;3.17;;;22.50;32.20;;;;;;5040537;28;20032;-59
2021/03/20 00:41:49;;;;;;;3.50;2.90;;;22.50;32.30;;;;;;5075017;28;20043;-58
2021/03/20 00:44:15;;;;;;;2.92;2.60;;;22.50;32.30;;;;;;5076996;28;20560;-58
2021/03/20 00:46:41;;;;;;;4.88;3.08;;;22.50;32.30;;;;;;5077728;28;20038;-59
2021/03/20 00:49:07;;;;;;;3.45;3.15;;;22.50;32.30;;;;;;5076426;28;20210;-59
2021/03/20 00:51:34;;;;;;;5.03;3.03;;;22.50;32.30;;;;;;5057063;28;20033;-59
2021/03/20 00:54:00;;;;;;;3.17;2.50;;;22.50;32.40;;;;;;5074284;28;20119;-59
2021/03/20 00:56:26;;;;;;;2.95;2.50;;;22.50;33.10;;;;;;5060314;28;20024;-58
2021/03/20 00:58:52;;;;;;;3.20;2.60;;;22.50;32.50;;;;;;5061901;28;20694;-58
2021/03/20 01:01:24;;;;;;;2.28;2.08;;;22.50;32.60;;;;;;5040352;28;20021;-59
2021/03/20 01:03:51;;;;;;;2.50;2.20;;;22.50;32.50;;;;;;5071278;28;20408;-59
2021/03/20 01:06:24;;;;;;;2.90;2.33;;;22.40;32.50;;;;;;5064503;28;20085;-59
2021/03/20 01:08:51;;;;;;;2.80;2.13;;;22.40;32.60;;;;;;5039901;28;20119;-59
2021/03/20 01:11:18;;;;;;;2.33;1.88;;;22.40;32.60;;;;;;5066621;28;20392;-59
2021/03/20 01:13:45;;;;;;;2.65;1.88;;;22.40;32.70;;;;;;5075739;28;20032;-59
2021/03/20 01:16:12;;;;;;;2.92;2.50;;;22.40;32.70;;;;;;5094208;28;20092;-59
2021/03/20 01:18:39;;;;;;;4.20;2.60;;;22.40;32.70;;;;;;5076728;28;20039;-59
2021/03/20 01:21:06;;;;;;;2.53;2.03;;;22.40;33.40;;;;;;5068270;28;20043;-59
2021/03/20 01:23:33;;;;;;;2.47;2.20;;;22.40;32.80;;;;;;5074420;28;20052;-59
2021/03/20 01:25:59;;;;;;;2.33;2.13;;;22.40;32.90;;;;;;5080980;28;20028;-59
2021/03/20 01:28:27;;;;;;;3.70;2.03;;;22.40;32.90;;;;;;5093683;28;20439;-58
2021/03/20 01:30:53;;;;;;;1.70;1.60;;;22.40;32.90;;;;;;5076153;28;20024;-58
2021/03/20 01:33:19;;;;;;;2.75;1.73;;;22.40;32.90;;;;;;5075020;28;20175;-59
2021/03/20 01:35:46;;;;;;;2.20;1.75;;;22.40;33.00;;;;;;5056305;28;20028;-59
2021/03/20 01:38:14;;;;;;;2.22;1.83;;;22.40;33.00;;;;;;5074538;28;20036;-59
2021/03/20 01:40:52;;;;;;;2.50;2.00;;;22.40;33.10;;;;;;5076353;28;20034;-59
2021/03/20 01:43:21;;;;;;;3.50;2.42;;;22.40;33.10;;;;;;5093141;28;20089;-58
2021/03/20 01:45:47;;;;;;;2.75;2.42;;;22.30;33.10;;;;;;5039656;28;20389;-59
2021/03/20 01:48:18;;;;;;;2.40;2.17;;;22.30;33.00;;;;;;5056040;28;20044;-59
2021/03/20 01:50:50;;;;;;;2.08;1.80;;;22.30;33.10;;;;;;5055954;28;20048;-58
2021/03/20 01:53:34;;;;;;;2.45;2.10;;;22.30;33.20;;;;;;5038700;28;20028;-59
2021/03/20 01:56:03;;;;;;;3.50;2.00;;;22.30;33.10;;;;;;5073466;28;20099;-58
2021/03/20 01:58:31;;;;;;;3.22;2.17;;;22.30;33.10;;;;;;5072962;28;20040;-59
2021/03/20 02:01:21;;;;;;;2.72;2.30;;;22.30;33.10;;;;;;5075833;28;20021;-59
2021/03/20 02:03:47;;;;;;;2.03;1.90;;;22.30;33.20;;;;;;5061190;28;20040;-59
2021/03/20 02:06:13;;;;;;;2.75;2.50;;;22.30;33.10;;;;;;5075664;28;20032;-59
2021/03/20 02:08:42;;;;;;;4.22;2.92;;;22.30;33.10;;;;;;5093148;28;20028;-59
2021/03/20 02:11:24;;;;;;;3.20;2.90;;;22.20;33.10;;;;;;5093733;28;20107;-58
2021/03/20 02:13:57;;;;;;;3.00;2.70;;;22.20;33.10;;;;;;5055497;28;20032;-59
2021/03/20 02:16:36;;;;;;;4.40;2.83;;;22.20;33.20;;;;;;5073423;28;20533;-59
2021/03/20 02:19:42;;;;;;;3.10;2.50;;;22.20;33.20;;;;;;5054164;28;20024;-59
2021/03/20 02:22:19;;;;;;;3.15;2.63;;;22.20;33.20;;;;;;5060360;28;20369;-59
2021/03/20 02:24:47;;;;;;;3.13;2.78;;;22.10;33.20;;;;;;5091785;28;20029;-59
2021/03/20 02:27:25;;;;;;;2.95;2.65;;;22.20;33.20;;;;;;5073351;28;20025;-59
2021/03/20 02:30:16;;;;;;;3.20;2.85;;;22.10;33.30;;;;;;5077053;28;20028;-59
2021/03/20 02:32:54;;;;;;;3.20;2.63;;;22.10;33.20;;;;;;5075592;28;20443;-59
2021/03/20 02:35:31;;;;;;;3.58;2.75;;;22.10;33.20;;;;;;5067743;28;20025;-59
2021/03/20 02:38:06;;;;;;;6.15;2.80;;;22.10;33.20;;;;;;5072762;28;20174;-59
2021/03/20 02:40:49;;;;;;;2.60;2.40;;;22.10;33.30;;;;;;5063122;28;20024;-59
2021/03/20 02:43:29;;;;;;;3.10;2.30;;;22.10;33.20;;;;;;5092844;28;20032;-59
2021/03/20 02:46:11;;;;;;;;;;;22.10;33.80;;;;;;5064003;28;20432;-58
2021/03/20 02:48:59;;;;;;;2.30;2.10;;;22.10;33.20;;;;;;5054840;28;20372;-59
2021/03/20 02:51:49;;;;;;;2.92;2.20;;;22.10;33.10;;;;;;5087216;28;20035;-64
2021/03/20 02:54:34;;;;;;;1.85;1.65;;;22.10;33.20;;;;;;5093071;28;20028;-59
2021/03/20 02:57:00;;;;;;;2.53;2.10;;;22.00;33.10;;;;;;5056116;28;20033;-59
2021/03/20 02:59:32;;;;;;;2.00;1.80;;;22.00;33.10;;;;;;5088738;28;20358;-59
2021/03/20 03:02:01;;;;;;;2.30;1.70;;;22.00;33.20;;;;;;5075210;28;20067;-59
2021/03/20 03:04:32;;;;;;;2.15;1.50;;;22.00;33.10;;;;;;5059102;28;20150;-59
2021/03/20 03:07:06;;;;;;;2.40;1.48;;;22.00;33.10;;;;;;5073126;28;20095;-59
2021/03/20 03:09:51;;;;;;;1.67;1.25;;;21.90;33.10;;;;;;5088263;28;20024;-59
2021/03/20 03:12:38;;;;;;;1.33;1.13;;;21.90;33.10;;;;;;5075186;28;20035;-59
2021/03/20 03:15:14;;;;;;;1.70;1.42;;;21.90;33.10;;;;;;5073530;28;20531;-59
2021/03/20 03:17:47;;;;;;;1.70;1.38;;;21.90;33.00;;;;;;5066383;28;20055;-59
2021/03/20 03:20:19;;;;;;;1.17;1.00;;;21.90;33.10;;;;;;5072957;28;20034;-59
2021/03/20 03:23:06;;;;;;;2.22;1.70;;;21.90;33.10;;;;;;5055109;28;20127;-59
2021/03/20 03:25:35;;;;;;;1.35;1.25;;;21.90;33.00;;;;;;5054788;28;20028;-59
2021/03/20 03:28:06;;;;;;;1.65;1.05;;;21.90;33.00;;;;;;5092245;28;20036;-59
2021/03/20 03:30:34;;;;;;;1.20;1.10;;;21.90;32.90;;;;;;5094639;28;20024;-58
2021/03/20 03:33:08;;;;;;;1.10;1.00;;;21.90;32.90;;;;;;5077504;28;20020;-59
2021/03/20 03:35:42;;;;;;;0.82;0.82;;;21.90;32.90;;;;;;5075921;28;20032;-58
2021/03/20 03:38:42;;;;;;;1.10;1.00;;;21.90;32.90;;;;;;5095260;28;20028;-59
2021/03/20 03:41:13;;;;;;;1.10;0.95;;;21.90;32.90;;;;;;5076261;28;20036;-59
2021/03/20 03:43:39;;;;;;;1.17;0.90;;;21.90;32.90;;;;;;5076263;28;20029;-59
2021/03/20 03:46:07;;;;;;;0.98;0.70;;;21.90;32.90;;;;;;5076754;28;20021;-59
2021/03/20 03:48:34;;;;;;;0.77;0.60;;;21.90;32.90;;;;;;5095853;28;20470;-59
2021/03/20 03:51:10;;;;;;;0.80;0.80;;;21.80;32.90;;;;;;5095485;28;20452;-58
2021/03/20 03:53:36;;;;;;;1.00;0.90;;;21.80;32.70;;;;;;5075338;28;20024;-59
2021/03/20 03:56:18;;;;;;;1.65;0.80;;;21.80;32.70;;;;;;5094523;28;20028;-59
2021/03/20 03:59:05;;;;;;;1.73;0.60;;;21.80;32.80;;;;;;5096430;28;20052;-58
2021/03/20 04:01:56;;;;;;;0.68;0.68;;;21.80;32.70;;;;;;5096206;28;20028;-59
2021/03/20 04:04:58;;;;;;;1.25;0.70;;;21.80;32.70;;;;;;5092388;28;20048;-59
2021/03/20 04:07:42;;;;;;;0.55;0.55;;;21.80;32.70;;;;;;5075993;28;20028;-59
2021/03/20 04:10:36;;;;;;;1.48;0.60;;;21.80;32.70;;;;;;5084800;28;20481;-58
2021/03/20 04:13:23;;;;;;;1.75;0.60;;;21.80;32.70;;;;;;5095871;28;20039;-58
2021/03/20 04:16:05;;;;;;;0.70;0.50;;;21.80;32.70;;;;;;5081432;28;20031;-58
2021/03/20 04:18:49;;;;;;;1.00;0.80;;;21.80;32.70;;;;;;5075132;28;20056;-59
2021/03/20 04:21:35;;;;;;;0.65;0.60;;;21.80;32.80;;;;;;5074823;28;20074;-58
2021/03/20 04:24:13;;;;;;;0.70;0.50;;;21.80;32.80;;;;;;5092294;28;20059;-58
2021/03/20 04:26:57;;;;;;;0.70;0.47;;;21.70;32.70;;;;;;5095269;28;20035;-58
2021/03/20 04:29:55;;;;;;;0.93;0.73;;;21.70;32.80;;;;;;5095285;28;20035;-58
2021/03/20 04:32:53;;;;;;;0.90;0.60;;;21.70;32.80;;;;;;5048609;28;20183;-59
2021/03/20 04:35:28;;;;;;;0.57;0.50;;;21.70;32.80;;;;;;5047794;28;20093;-59
2021/03/20 04:37:56;;;;;;;0.52;0.40;;;21.80;33.00;;;;;;5081697;28;20411;-59
2021/03/20 04:40:36;;;;;;;0.95;0.63;;;21.70;32.90;;;;;;5095834;28;20035;-59
2021/03/20 04:43:03;;;;;;;0.85;0.50;;;21.70;32.90;;;;;;5069090;28;20401;-59
2021/03/20 04:45:39;;;;;;;0.75;0.50;;;21.70;33.00;;;;;;5057275;28;20032;-59
2021/03/20 04:48:32;;;;;;;0.70;0.50;;;21.70;33.00;;;;;;5081795;28;20036;-59
2021/03/20 04:51:26;;;;;;;0.52;0.50;;;21.70;33.00;;;;;;5074019;28;20128;-59
2021/03/20 04:54:10;;;;;;;1.33;0.65;;;21.70;33.00;;;;;;5095220;28;20032;-59
2021/03/20 04:56:43;;;;;;;1.85;0.50;;;21.70;33.10;;;;;;5083574;28;20351;-58
2021/03/20 04:59:20;;;;;;;0.85;0.60;;;21.70;33.10;;;;;;5057550;28;20102;-58
2021/03/20 05:01:50;;;;;;;1.80;0.70;;;21.70;33.10;;;;;;5087845;28;20031;-59
2021/03/20 05:04:26;;;;;;;0.77;0.60;;;21.70;33.10;;;;;;5095273;28;20040;-59
2021/03/20 05:06:57;;;;;;;0.85;0.70;;;21.70;33.10;;;;;;5072660;28;20085;-59
2021/03/20 05:09:26;;;;;;;0.93;0.75;;;21.70;33.20;;;;;;5074644;28;20082;-59
2021/03/20 05:12:01;;;;;;;0.80;0.60;;;21.70;33.20;;;;;;5053033;28;20028;-58
2021/03/20 05:14:41;;;;;;;0.70;0.60;;;21.60;33.20;;;;;;5094619;28;20218;-59
2021/03/20 05:17:11;;;;;;;0.65;0.65;;;21.60;33.20;;;;;;5093874;28;20020;-58
2021/03/20 05:19:37;;;;;;;1.02;0.60;;;21.60;33.30;;;;;;5094704;28;20210;-58
2021/03/20 05:22:05;;;;;;;0.70;0.70;;;21.60;33.30;;;;;;5081307;28;20052;-58
2021/03/20 05:24:36;;;;;;;0.63;0.60;;;21.60;33.40;;;;;;5082219;28;20441;-58
2021/03/20 05:27:05;;;;;;;1.58;0.82;;;21.60;33.40;;;;;;5094686;28;20110;-59
2021/03/20 05:29:32;;;;;;;0.90;0.68;;;21.60;33.40;;;;;;5075885;28;20060;-59
2021/03/20 05:31:59;;;;;;;1.05;0.60;;;21.60;33.40;;;;;;5076569;28;20035;-58
2021/03/20 05:34:29;;;;;;;1.73;0.88;;;21.60;33.50;;;;;;5088264;28;20470;-59
2021/03/20 05:36:55;;;;;;;0.87;0.73;;;21.60;33.50;;;;;;5056432;28;20028;-59
2021/03/20 05:39:22;;;;;;;1.17;0.95;;;21.50;33.40;;;;;;5078831;28;20016;-59
2021/03/20 05:42:16;;;;;;;1.55;1.27;;;21.60;33.40;;;;;;5094485;28;20036;-59
2021/03/20 05:45:03;;;;;;;1.73;1.10;;;21.50;33.40;;;;;;5086859;28;20021;-59
2021/03/20 05:47:50;;;;;;;1.52;1.00;;;21.50;33.30;;;;;;5074071;28;20028;-58
2021/03/20 05:50:40;;;;;;;1.75;1.13;;;21.50;33.40;;;;;;5089121;28;20489;-59
2021/03/20 05:53:43;;;;;;;2.30;1.00;;;21.50;33.40;;;;;;5082108;28;20113;-59
2021/03/20 05:56:15;;;;;;;1.67;1.02;;;21.50;33.40;;;;;;5073826;28;20016;-58
2021/03/20 05:59:25;;;;;;;1.33;1.02;;;21.50;33.40;;;;;;5089659;28;20060;-58
2021/03/20 06:02:01;;;;;;;1.10;0.75;;;21.50;33.60;;;;;;5011799;28;20126;-59
2021/03/20 06:04:34;;;;;;;1.05;0.95;;;21.50;33.50;;;;;;4992144;28;20046;-58
2021/03/20 06:07:30;;;;;;;2.15;1.05;;;21.50;33.60;;;;;;4976526;28;20041;-59
2021/03/20 06:10:23;;;;;;;1.15;0.90;;;21.50;33.60;;;;;;5012097;28;20042;-58
2021/03/20 06:12:57;;;;;;;1.15;1.05;;;21.40;33.70;;;;;;5004824;28;20042;-58
2021/03/20 06:16:07;;;;;;;1.52;1.42;;;21.50;33.70;;;;;;4992820;28;20109;-58
2021/03/20 06:18:45;;;;;;;1.48;1.10;;;21.40;33.60;;;;;;4946354;29;20434;-59
2021/03/20 06:21:23;;;;;;;1.30;0.95;;;21.40;33.60;;;;;;4953126;29;20409;-58
2021/03/20 06:24:13;;;;;;;1.17;1.00;;;21.40;33.60;;;;;;4953533;29;20122;-59
2021/03/20 06:26:40;;;;;;;1.40;1.17;;;21.40;33.60;;;;;;4953006;29;20043;-58
2021/03/20 06:29:21;;;;;;;2.28;1.30;;;21.40;33.50;;;;;;4937468;29;20042;-58
2021/03/20 06:31:58;;;;;;;1.52;1.00;;;21.40;33.50;;;;;;4953153;29;20123;-59
2021/03/20 06:34:40;;;;;;;1.58;1.10;;;21.40;33.60;;;;;;4937171;29;20122;-59
2021/03/20 06:37:08;;;;;;;1.30;0.93;;;21.40;33.60;;;;;;5028174;28;20080;-58
2021/03/20 06:40:03;;;;;;;1.50;1.15;;;21.40;33.60;;;;;;4998399;28;20037;-59
2021/03/20 06:42:35;;;;;;;2.42;1.50;;;21.30;33.50;;;;;;5022537;28;20064;-59
2021/03/20 06:45:12;;;;;;;1.13;1.02;;;21.40;33.70;;;;;;5031041;28;20122;-58
2021/03/20 06:47:40;;;;;;;2.00;1.50;;;21.40;33.70;;;;;;5011669;28;20037;-58
2021/03/20 06:50:16;;;;;;;1.60;1.00;;;21.40;33.50;;;;;;5028669;28;20040;-58
2021/03/20 06:52:46;;;;;;;3.03;1.80;;;21.30;33.50;;;;;;5065865;28;20040;-59
2021/03/20 06:55:27;;;;;;;3.50;2.03;;;21.30;33.50;;;;;;5075535;28;20116;-59
2021/03/20 06:57:53;;;;;;;2.38;1.55;;;21.30;33.40;;;;;;5054981;28;20036;-59
2021/03/20 07:00:29;;;;;;;3.35;1.70;;;21.30;33.40;;;;;;5090804;28;20028;-59
2021/03/20 07:03:01;;;;;;;1.75;1.65;;;21.30;33.30;;;;;;5074746;28;20032;-58
2021/03/20 07:06:06;;;;;;;2.95;2.10;;;21.30;33.40;;;;;;5083127;28;20068;-58
2021/03/20 07:08:50;;;;;;;1.90;1.73;;;21.20;33.30;;;;;;5089227;28;20077;-58
2021/03/20 07:11:24;;;;;;;3.03;2.00;;;21.30;33.40;;;;;;5097334;28;20036;-58
2021/03/20 07:13:58;;;;;;;2.50;1.55;;;21.30;33.50;;;;;;5092699;28;20052;-58
2021/03/20 07:16:25;;;;;;;3.00;2.20;;;21.30;33.60;;;;;;5078670;28;20050;-59
2021/03/20 07:19:13;;;;;;;2.42;2.05;;;21.30;33.70;;;;;;5096934;28;20028;-58
2021/03/20 07:21:42;;;;;;;2.60;1.92;;;21.30;33.70;;;;;;5075202;28;20044;-58
2021/03/20 07:24:20;;;;;;;2.22;1.95;;;21.30;33.70;;;;;;5076748;28;20028;-58
2021/03/20 07:27:04;;;;;;;2.33;2.10;;;21.30;33.90;;;;;;5079572;28;20397;-57
2021/03/20 07:29:41;;;;;;;3.30;2.53;;;21.30;33.90;;;;;;5096952;28;20052;-57
2021/03/20 07:32:10;;;;;;;26.50;22.15;;;21.30;33.90;;;;;;5096007;28;20028;-58
2021/03/20 07:34:36;;;;;;;46.53;39.08;;;21.30;33.90;;;;;;5096736;28;20119;-58
2021/03/20 07:37:19;;;;;;;106.18;94.60;;;21.30;33.90;;;;;;5091373;28;20020;-57
2021/03/20 07:39:57;;;;;;;110.97;97.30;;;21.20;34.00;;;;;;5076340;28;20028;-58
2021/03/20 07:42:29;;;;;;;95.90;84.72;;;21.30;34.10;;;;;;5089025;28;20073;-57
2021/03/20 07:45:09;;;;;;;89.43;79.60;;;21.30;34.30;;;;;;5090859;28;20044;-57
2021/03/20 07:47:40;;;;;;;87.93;76.53;;;21.30;34.30;;;;;;5075459;28;20024;-58
2021/03/20 07:50:24;;;;;;;84.07;74.68;;;21.30;34.40;;;;;;5081616;28;20028;-57
2021/03/20 07:53:12;;;;;;;82.28;72.53;;;21.30;34.40;;;;;;5096103;28;20032;-57
2021/03/20 07:56:05;;;;;;;71.60;64.00;;;21.30;34.60;;;;;;5085546;28;20405;-58
2021/03/20 07:58:38;;;;;;;71.18;63.40;;;21.30;34.60;;;;;;5075979;28;20786;-57
2021/03/20 08:01:11;;;;;;;68.82;58.15;;;21.30;34.60;;;;;;5083492;28;20035;-57
2021/03/20 08:03:54;;;;;;;63.25;56.42;;;21.30;34.80;;;;;;5096349;28;20040;-57
2021/03/20 08:06:46;;;;;;;40.35;35.28;;;21.30;34.60;;;;;;5095540;28;20485;-57
2021/03/20 08:09:21;;;;;;;36.88;32.83;;;21.30;34.60;;;;;;5095004;28;20039;-57
2021/03/20 08:12:10;;;;;;;33.83;29.58;;;21.30;34.50;;;;;;5095388;28;20239;-57
2021/03/20 08:14:51;;;;;;;29.40;24.92;;;21.40;34.40;;;;;;5059822;28;20060;-57
2021/03/20 08:17:19;;;;;;;29.40;26.33;;;21.30;34.40;;;;;;5075519;28;20028;-57
2021/03/20 08:19:47;;;;;;;34.47;27.38;;;21.40;34.50;;;;;;5093466;28;20024;-57
2021/03/20 08:22:41;;;;;;;26.65;23.75;;;21.40;34.50;;;;;;5095688;28;20358;-57
2021/03/20 08:25:32;;;;;;;25.02;22.45;;;21.30;34.40;;;;;;5040941;28;20025;-57
2021/03/20 08:28:25;;;;;;;27.92;24.95;;;21.30;34.40;;;;;;5079641;28;20024;-57
2021/03/20 08:31:03;;;;;;;35.58;31.60;;;21.40;34.40;;;;;;5083273;28;20031;-58
2021/03/20 08:33:44;;;;;;;36.15;31.92;;;21.40;34.30;;;;;;5086321;28;20016;-57
2021/03/20 08:36:37;;;;;;;39.58;32.17;;;21.30;34.20;;;;;;5080577;28;20020;-58
2021/03/20 08:39:21;;;;;;;39.25;32.92;;;21.30;34.20;;;;;;5082209;28;20056;-56
2021/03/20 08:42:25;;;;;;;31.38;26.27;;;21.30;34.40;;;;;;5082727;28;20028;-56
2021/03/20 08:45:28;;;;;;;26.70;23.77;;;21.20;34.30;;;;;;5093856;28;20032;-55
2021/03/20 08:48:03;;;;;;;24.17;16.00;;;21.20;34.30;;;;;;5083091;28;20034;-56
2021/03/20 08:50:48;;;;;;;18.13;15.30;;;21.30;34.00;;;;;;5078111;28;20033;-56
2021/03/20 08:53:24;;;;;;;16.30;13.32;;;21.30;34.20;;;;;;5087365;28;20043;-56
2021/03/20 08:56:28;;;;;;;12.68;10.55;;;21.30;34.10;;;;;;5084445;28;20369;-56
2021/03/20 08:59:20;;;;;;;10.32;8.82;;;21.30;34.00;;;;;;5073744;28;20396;-57
2021/03/20 09:01:57;;;;;;;10.63;7.35;;;21.30;33.80;;;;;;5094806;28;20473;-57
2021/03/20 09:04:39;;;;;;;10.45;6.72;;;21.30;33.60;;;;;;5072867;28;20037;-57
2021/03/20 09:07:40;;;;;;;11.32;6.72;;;21.30;33.80;;;;;;5061380;28;20091;-56
2021/03/20 09:10:27;;;;;;;10.95;7.18;;;21.30;34.00;;;;;;5071704;28;20710;-58
2021/03/20 09:13:24;;;;;;;8.88;6.63;;;21.40;34.20;;;;;;5067289;28;20498;-58
2021/03/20 09:16:06;;;;;;;13.40;6.60;;;21.40;34.40;;;;;;5073287;28;20374;-57
2021/03/20 09:18:39;;;;;;;8.05;7.00;;;21.40;34.50;;;;;;5062967;28;20470;-58
2021/03/20 09:21:19;;;;;;;7.75;6.03;;;21.50;34.50;;;;;;5057921;28;20036;-58
2021/03/20 09:23:50;;;;;;;9.13;6.38;;;21.50;34.70;;;;;;5065944;28;20523;-57
2021/03/20 09:26:41;;;;;;;6.63;5.32;;;21.50;34.80;;;;;;5054791;28;20081;-58
2021/03/20 09:29:24;;;;;;;8.77;5.75;;;21.50;34.90;;;;;;5052632;28;20033;-58
2021/03/20 09:31:53;;;;;;;14.90;5.70;;;21.60;35.00;;;;;;5058605;28;20032;-58
2021/03/20 09:34:52;;;;;;;12.05;6.10;;;21.70;35.10;;;;;;5074157;28;20512;-57
2021/03/20 09:37:19;;;;;;;6.97;5.15;;;21.70;35.00;;;;;;5060832;28;20024;-58
2021/03/20 09:39:58;;;;;;;7.60;5.00;;;21.80;35.00;;;;;;5073917;28;20035;-58
2021/03/20 09:42:26;;;;;;;6.60;4.55;;;21.90;35.10;;;;;;5056024;28;20382;-57
2021/03/20 09:44:57;;;;;;;6.65;4.93;;;21.90;35.00;;;;;;5056318;28;20032;-58
2021/03/20 09:47:35;;;;;;;7.47;4.93;;;22.00;35.10;;;;;;5060620;28;20081;-57
2021/03/20 09:50:34;;;;;;;6.90;4.80;;;22.00;35.10;;;;;;5071267;28;20029;-58
2021/03/20 09:53:10;;;;;;;6.88;3.80;;;22.10;35.10;;;;;;5063804;28;20029;-58
2021/03/20 09:55:46;;;;;;;7.10;4.20;;;22.10;35.10;;;;;;5053566;28;20032;-58
2021/03/20 09:58:29;;;;;;;5.55;3.78;;;22.20;35.20;;;;;;5051844;28;20393;-58
2021/03/20 10:01:04;;;;;;;4.82;3.58;;;22.30;35.10;;;;;;5054408;28;20363;-58
2021/03/20 10:03:49;;;;;;;6.30;3.25;;;22.30;35.10;;;;;;5056698;28;20037;-58
2021/03/20 10:06:33;;;;;;;4.78;4.00;;;22.40;35.00;;;;;;5068440;28;20032;-58
2021/03/20 10:09:07;;;;;;;5.25;3.25;;;22.40;34.90;;;;;;5052899;28;20036;-58
2021/03/20 10:11:40;;;;;;;4.60;2.83;;;22.50;34.90;;;;;;5051436;28;20383;-58
2021/03/20 10:14:31;;;;;;;6.57;2.83;;;22.50;34.80;;;;;;5071197;28;20032;-59
2021/03/20 10:17:18;;;;;;;3.28;2.47;;;22.60;34.80;;;;;;5062121;28;20473;-57
2021/03/20 10:19:50;;;;;;;3.50;2.47;;;22.60;34.60;;;;;;5059951;28;20036;-60
2021/03/20 10:22:32;;;;;;;2.28;1.88;;;22.70;34.10;;;;;;5070351;28;20033;-60
2021/03/20 10:24:58;;;;;;;3.67;1.90;;;22.70;33.90;;;;;;5070227;28;20505;-59
2021/03/20 10:27:32;;;;;;;6.50;1.58;;;22.80;33.90;;;;;;5083508;28;20393;-64
2021/03/20 10:30:16;;;;;;;5.97;1.48;;;22.80;33.90;;;;;;5063459;28;20056;-64
2021/03/20 10:33:00;;;;;;;2.47;1.13;;;22.80;34.00;;;;;;5052273;28;20028;-64
2021/03/20 10:35:33;;;;;;;24.75;21.60;;;22.90;34.20;;;;;;5058509;28;20025;-62
2021/03/20 10:38:29;;;;;;;47.75;42.50;;;22.90;34.30;;;;;;5061105;28;20048;-62
2021/03/20 10:41:05;;;;;;;15.40;12.68;;;22.90;34.40;;;;;;5061794;28;20024;-62
2021/03/20 10:43:55;;;;;;;10.15;9.05;;;22.90;34.10;;;;;;5061978;28;20115;-62
2021/03/20 10:46:21;;;;;;;8.50;6.03;;;23.00;34.20;;;;;;5070993;28;20028;-62
2021/03/20 10:48:50;;;;;;;15.90;14.20;;;22.90;34.10;;;;;;5070985;28;20437;-61
2021/03/20 10:51:17;;;;;;;13.38;11.40;;;23.00;34.20;;;;;;5071033;28;20116;-60
2021/03/20 10:53:53;;;;;;;14.32;12.60;;;23.00;34.30;;;;;;5060445;28;20032;-60
2021/03/20 10:56:33;;;;;;;13.23;11.45;;;23.00;34.40;;;;;;5071122;28;20039;-60
2021/03/20 10:59:00;;;;;;;13.23;11.30;;;23.00;34.60;;;;;;5060931;28;20021;-60
2021/03/20 11:01:36;;;;;;;16.13;10.35;;;23.10;34.60;;;;;;5061779;28;20684;-60
2021/03/20 11:04:03;;;;;;;60.15;53.58;;;23.10;34.70;;;;;;5067275;28;20071;-60
2021/03/20 11:06:30;;;;;;;61.40;50.85;;;23.10;34.60;;;;;;5075544;28;20123;-61
2021/03/20 11:09:11;;;;;;;55.70;49.20;;;23.20;34.70;;;;;;5063581;28;20042;-60
2021/03/20 11:11:41;;;;;;;49.78;43.90;;;23.20;34.80;;;;;;5075899;28;20024;-60
2021/03/20 11:14:12;;;;;;;47.07;41.90;;;23.20;34.80;;;;;;5068908;28;20035;-63
2021/03/20 11:16:48;;;;;;;39.40;35.10;;;23.20;34.90;;;;;;5088672;28;20082;-61
2021/03/20 11:19:31;;;;;;;38.45;33.55;;;23.20;35.60;;;;;;5074676;28;20024;-61
2021/03/20 11:22:14;;;;;;;35.80;30.48;;;23.20;35.00;;;;;;5047910;28;20497;-61
2021/03/20 11:24:40;;;;;;;31.50;27.52;;;23.20;35.10;;;;;;5061350;28;20035;-62
2021/03/20 11:27:16;;;;;;;32.65;28.60;;;23.30;35.10;;;;;;5061343;28;20040;-61
2021/03/20 11:29:43;;;;;;;28.45;24.95;;;23.30;35.10;;;;;;5085596;28;20082;-61
2021/03/20 11:32:29;;;;;;;29.33;24.98;;;23.30;35.00;;;;;;5066074;28;20059;-62
2021/03/20 11:35:26;;;;;;;26.67;22.58;;;23.40;35.00;;;;;;5072418;28;20342;-62
2021/03/20 11:37:53;;;;;;;26.50;22.10;;;23.40;35.00;;;;;;5081348;28;20035;-61
2021/03/20 11:40:35;;;;;;;23.92;21.45;;;23.50;34.90;;;;;;5066236;28;20169;-61
2021/03/20 11:43:08;;;;;;;22.75;19.67;;;23.50;34.90;;;;;;5085984;28;20029;-62
2021/03/20 11:45:40;;;;;;;22.88;19.83;;;23.50;34.90;;;;;;5076380;28;20436;-61
2021/03/20 11:48:31;;;;;;;24.50;19.85;;;23.60;34.90;;;;;;5085734;28;20086;-61
2021/03/20 11:50:59;;;;;;;20.70;18.15;;;23.70;34.90;;;;;;5073403;28;20097;-62
2021/03/20 11:53:30;;;;;;;20.80;17.20;;;23.70;34.80;;;;;;5088395;28;20024;-61
2021/03/20 11:55:57;;;;;;;;;;;23.90;34.70;;;;;;5052274;28;20103;-61
2021/03/20 11:58:33;;;;;;;12.98;9.95;;;23.90;34.80;;;;;;5083787;28;20266;-60
2021/03/20 12:01:01;;;;;;;52.42;46.92;;;24.10;34.80;;;;;;5081763;28;20020;-61
2021/03/20 12:03:30;;;;;;;15.27;13.60;;;24.20;33.90;;;;;;5062904;28;20024;-62
2021/03/20 12:06:15;;;;;;;10.35;9.15;;;24.20;33.10;;;;;;5085303;28;20197;-61
2021/03/20 12:08:46;;;;;;;8.55;7.03;;;24.30;33.10;;;;;;5092700;28;20153;-61
2021/03/20 12:11:15;;;;;;;8.75;4.63;;;24.30;33.00;;;;;;5070832;28;20037;-61
2021/03/20 12:13:48;;;;;;;5.32;3.20;;;24.40;32.70;;;;;;5085142;28;20115;-62
2021/03/20 12:16:43;;;;;;;5.53;4.40;;;24.50;32.50;;;;;;5077433;28;20031;-62
2021/03/20 12:19:22;;;;;;;7.97;4.38;;;24.60;32.70;;;;;;5066456;28;20050;-61
2021/03/20 12:22:04;;;;;;;9.80;3.47;;;24.70;32.20;;;;;;5077578;28;20029;-61
2021/03/20 12:24:48;;;;;;;6.95;3.35;;;24.90;32.20;;;;;;5088447;28;20029;-61
2021/03/20 12:27:33;;;;;;;9.68;3.40;;;24.90;32.00;;;;;;5088186;28;20032;-62
2021/03/20 12:30:03;;;;;;;14.18;4.57;;;25.00;31.90;;;;;;5093507;28;20062;-63
2021/03/20 12:32:39;;;;;;;5.03;2.80;;;25.00;31.90;;;;;;5058430;28;20048;-63
2021/03/20 12:35:18;;;;;;;9.52;3.33;;;25.00;31.70;;;;;;5093787;28;20029;-62
2021/03/20 12:38:22;;;;;;;6.10;2.53;;;25.00;32.00;;;;;;5093666;28;20020;-63
2021/03/20 12:40:59;;;;;;;7.35;2.95;;;24.90;32.00;;;;;;5093681;28;20032;-63
2021/03/20 12:43:41;;;;;;;7.65;2.90;;;24.90;31.90;;;;;;5075356;28;20051;-62
2021/03/20 12:46:16;;;;;;;9.45;2.90;;;24.90;31.80;;;;;;5093715;28;20052;-62
2021/03/20 12:48:51;;;;;;;7.00;2.85;;;24.80;31.80;;;;;;5093645;28;20028;-64
2021/03/20 12:51:24;;;;;;;6.90;2.35;;;24.80;32.00;;;;;;5075360;28;20028;-62
2021/03/20 12:53:57;;;;;;;6.22;2.30;;;24.80;31.90;;;;;;5093125;28;20074;-63
2021/03/20 12:56:33;;;;;;;4.00;1.58;;;24.70;31.90;;;;;;5075617;28;20031;-62
2021/03/20 12:59:07;;;;;;;3.95;1.33;;;24.70;32.00;;;;;;5093697;28;20024;-64
2021/03/20 13:01:56;;;;;;;1.35;0.95;;;24.70;32.00;;;;;;5093754;28;20369;-63
2021/03/20 13:04:35;;;;;;;4.07;1.23;;;24.70;31.80;;;;;;5092712;28;20101;-63
2021/03/20 13:07:04;;;;;;;5.60;1.25;;;24.60;31.70;;;;;;5075561;28;20044;-64
2021/03/20 13:09:42;;;;;;;1.73;1.13;;;24.60;31.90;;;;;;5093274;28;20366;-64
2021/03/20 13:12:14;;;;;;;5.03;1.20;;;24.60;31.80;;;;;;5093006;28;20028;-63
2021/03/20 13:14:46;;;;;;;1.83;1.10;;;24.60;31.80;;;;;;5073672;28;20072;-63
2021/03/20 13:17:15;;;;;;;3.97;1.58;;;24.60;31.80;;;;;;5057959;28;20430;-63
2021/03/20 13:19:54;;;;;;;5.07;1.58;;;24.60;31.70;;;;;;5074799;28;20039;-64
2021/03/20 13:22:30;;;;;;;4.68;0.90;;;24.60;31.70;;;;;;5092997;28;20054;-64
2021/03/20 13:24:57;;;;;;;4.03;1.10;;;24.60;31.70;;;;;;5074540;28;20043;-64
2021/03/20 13:27:31;;;;;;;2.97;1.83;;;24.50;31.70;;;;;;5092288;28;20044;-64
2021/03/20 13:30:03;;;;;;;2.90;1.58;;;24.50;31.70;;;;;;5092609;28;20028;-63
2021/03/20 13:32:34;;;;;;;2.92;1.05;;;24.50;31.80;;;;;;5092797;28;20085;-63